createdAt,value
2017-07-25T00:00:54.234Z,99.99
2017-07-25T00:01:55.468Z,99.99
2017-07-25T00:02:56.711Z,99.99
2017-07-25T00:03:58.038Z,99.99
2017-07-25T00:04:59.309Z,99.99
2017-07-25T00:06:00.544Z,99.99
2017-07-25T00:07:01.808Z,99.99
2017-07-25T00:08:03.029Z,99.99
2017-07-25T00:09:04.275Z,99.99
2017-07-25T00:10:05.576Z,99.99
2017-07-25T00:11:06.810Z,99.99
2017-07-25T00:12:08.116Z,99.99
2017-07-25T00:13:09.349Z,99.99
2017-07-25T00:14:10.586Z,99.99
2017-07-25T00:15:11.867Z,99.99
2017-07-25T00:16:13.104Z,99.99
2017-07-25T00:17:14.450Z,99.99
2017-07-25T00:18:15.725Z,99.99
2017-07-25T00:19:16.961Z,99.99
2017-07-25T00:20:18.206Z,99.99
2017-07-25T00:21:19.448Z,99.99
2017-07-25T00:22:20.697Z,99.99
2017-07-25T00:23:21.934Z,99.99
2017-07-25T00:24:23.169Z,99.99
2017-07-25T00:25:24.410Z,99.99
2017-07-25T00:26:25.640Z,99.99
2017-07-25T00:27:26.888Z,99.99
2017-07-25T00:28:28.123Z,99.99
2017-07-25T00:29:29.443Z,99.99
2017-07-25T00:30:30.643Z,99.99
2017-07-25T00:31:31.981Z,99.99
2017-07-25T00:32:33.231Z,99.99
2017-07-25T00:33:34.488Z,99.99
2017-07-25T00:34:35.763Z,99.99
2017-07-25T00:35:37.010Z,99.99
2017-07-25T00:36:38.237Z,99.99
2017-07-25T00:37:39.509Z,99.99
2017-07-25T00:38:40.740Z,99.99
2017-07-25T00:39:41.978Z,99.99
2017-07-25T00:40:43.213Z,99.99
2017-07-25T00:41:44.521Z,99.99
2017-07-25T00:42:45.951Z,99.99
2017-07-25T00:43:47.190Z,99.99
2017-07-25T00:44:48.418Z,99.99
2017-07-25T00:45:49.652Z,99.99
2017-07-25T00:46:50.906Z,99.99
2017-07-25T00:47:52.238Z,99.99
2017-07-25T00:48:53.487Z,99.99
2017-07-25T00:49:54.712Z,99.99
2017-07-25T00:50:55.943Z,99.99
2017-07-25T00:51:57.187Z,99.99
2017-07-25T00:52:58.424Z,99.99
2017-07-25T00:53:59.791Z,99.99
2017-07-25T00:55:01.032Z,99.99
2017-07-25T00:56:02.271Z,99.99
2017-07-25T00:57:03.500Z,99.99
2017-07-25T00:58:04.729Z,99.99
2017-07-25T00:59:05.966Z,99.99
2017-07-25T01:00:07.211Z,99.99
2017-07-25T01:01:08.467Z,99.99
2017-07-25T01:02:09.765Z,99.99
2017-07-25T01:03:11.063Z,99.99
2017-07-25T01:04:12.293Z,99.99
2017-07-25T01:05:13.531Z,99.99
2017-07-25T01:06:14.770Z,99.99
2017-07-25T01:07:16.013Z,99.99
2017-07-25T01:08:17.302Z,99.99
2017-07-25T01:09:18.575Z,99.99
2017-07-25T01:10:19.796Z,99.99
2017-07-25T01:11:21.027Z,99.99
2017-07-25T01:12:22.266Z,99.99
2017-07-25T01:13:23.504Z,99.99
2017-07-25T01:14:24.775Z,99.99
2017-07-25T01:15:26.036Z,99.99
2017-07-25T01:16:27.292Z,99.99
2017-07-25T01:17:28.539Z,99.99
2017-07-25T01:18:29.778Z,99.99
2017-07-25T01:19:31.012Z,99.99
2017-07-25T01:20:32.351Z,99.99
2017-07-25T01:21:33.705Z,99.99
2017-07-25T01:22:34.980Z,99.99
2017-07-25T01:23:36.233Z,99.99
2017-07-25T01:24:37.458Z,99.99
2017-07-25T01:25:38.685Z,99.99
2017-07-25T01:26:39.963Z,99.99
2017-07-25T01:27:41.239Z,99.99
2017-07-25T01:28:42.489Z,99.99
2017-07-25T01:29:43.703Z,99.99
2017-07-25T01:30:44.945Z,99.99
2017-07-25T01:31:46.354Z,99.99
2017-07-25T01:32:47.607Z,99.99
2017-07-25T01:33:48.836Z,99.99
2017-07-25T01:34:50.074Z,99.99
2017-07-25T01:35:51.314Z,99.99
2017-07-25T01:36:52.553Z,99.99
2017-07-25T01:37:53.803Z,99.99
2017-07-25T01:38:55.059Z,99.99
2017-07-25T01:39:56.259Z,99.99
2017-07-25T01:40:57.548Z,99.99
2017-07-25T01:41:58.793Z,99.99
2017-07-25T01:43:00.017Z,99.99
2017-07-25T01:44:01.266Z,99.99
2017-07-25T01:45:02.512Z,99.99
2017-07-25T01:46:03.798Z,99.99
2017-07-25T01:47:05.116Z,99.99
2017-07-25T01:48:06.318Z,99.99
2017-07-25T01:49:07.554Z,99.99
2017-07-25T01:50:08.792Z,99.99
2017-07-25T01:51:10.145Z,99.99
2017-07-25T01:52:11.380Z,99.99
2017-07-25T01:53:12.869Z,99.99
2017-07-25T01:54:14.076Z,99.99
2017-07-25T01:55:15.316Z,99.99
2017-07-25T01:56:16.556Z,99.99
2017-07-25T01:57:17.889Z,99.99
2017-07-25T01:58:19.124Z,99.99
2017-07-25T01:59:20.359Z,99.99
2017-07-25T02:00:21.596Z,99.99
2017-07-25T02:01:22.824Z,99.99
2017-07-25T02:02:24.062Z,99.99
2017-07-25T02:03:25.293Z,99.99
2017-07-25T02:04:26.548Z,99.99
2017-07-25T02:05:27.893Z,99.99
2017-07-25T02:06:29.128Z,99.99
2017-07-25T02:07:30.371Z,99.99
2017-07-25T02:08:31.612Z,99.99
2017-07-25T02:09:32.842Z,99.99
2017-07-25T02:10:34.084Z,99.99
2017-07-25T02:11:35.446Z,99.99
2017-07-25T02:12:36.674Z,99.99
2017-07-25T02:13:37.905Z,99.99
2017-07-25T02:14:39.142Z,99.99
2017-07-25T02:15:40.379Z,99.99
2017-07-25T02:16:41.657Z,99.99
2017-07-25T02:17:42.879Z,99.99
2017-07-25T02:18:44.228Z,99.99
2017-07-25T02:19:45.519Z,99.99
2017-07-25T02:20:46.754Z,99.99
2017-07-25T02:21:48.017Z,99.99
2017-07-25T02:22:49.252Z,99.99
2017-07-25T02:23:50.516Z,99.99
2017-07-25T02:24:51.752Z,99.99
2017-07-25T02:25:53.071Z,99.99
2017-07-25T02:26:54.354Z,99.99
2017-07-25T02:27:55.580Z,99.99
2017-07-25T02:28:56.817Z,99.99
2017-07-25T02:29:58.070Z,99.99
2017-07-25T02:30:59.351Z,99.99
2017-07-25T02:32:00.585Z,99.99
2017-07-25T02:33:01.825Z,99.99
2017-07-25T02:34:03.055Z,99.99
2017-07-25T02:35:04.332Z,99.99
2017-07-25T02:36:05.551Z,99.99
2017-07-25T02:37:06.804Z,99.99
2017-07-25T02:38:08.081Z,99.99
2017-07-25T02:39:09.373Z,99.99
2017-07-25T02:40:10.609Z,99.99
2017-07-25T02:41:11.866Z,99.99
2017-07-25T02:42:13.090Z,99.99
2017-07-25T02:43:14.305Z,99.99
2017-07-25T02:44:15.605Z,99.99
2017-07-25T02:45:16.841Z,99.99
2017-07-25T02:46:18.075Z,99.99
2017-07-25T02:47:19.312Z,99.99
2017-07-25T02:48:20.551Z,99.99
2017-07-25T02:49:21.851Z,99.99
2017-07-25T02:50:23.082Z,99.99
2017-07-25T02:51:24.320Z,99.99
2017-07-25T02:52:25.556Z,99.99
2017-07-25T02:53:26.804Z,99.99
2017-07-25T02:54:28.126Z,99.99
2017-07-25T02:55:29.517Z,99.99
2017-07-25T02:56:30.750Z,99.99
2017-07-25T02:57:32.043Z,99.99
2017-07-25T02:58:33.286Z,99.99
2017-07-25T02:59:34.512Z,99.99
2017-07-25T03:00:35.757Z,99.99
2017-07-25T03:01:36.981Z,99.99
2017-07-25T03:02:38.214Z,99.99
2017-07-25T03:03:39.448Z,99.99
2017-07-25T03:04:40.685Z,99.99
2017-07-25T03:05:41.931Z,99.99
2017-07-25T03:06:43.164Z,99.99
2017-07-25T03:07:44.413Z,99.99
2017-07-25T03:08:45.705Z,99.99
2017-07-25T03:09:46.930Z,99.99
2017-07-25T03:10:48.225Z,99.99
2017-07-25T03:11:49.418Z,99.99
2017-07-25T03:12:50.652Z,99.99
2017-07-25T03:13:51.928Z,99.99
2017-07-25T03:14:53.163Z,99.99
2017-07-25T03:15:54.400Z,99.99
2017-07-25T03:16:55.640Z,99.99
2017-07-25T03:17:57.001Z,99.99
2017-07-25T03:18:58.237Z,99.99
2017-07-25T03:19:59.472Z,99.99
2017-07-25T03:21:00.727Z,99.99
2017-07-25T03:22:01.985Z,99.99
2017-07-25T03:23:03.307Z,99.99
2017-07-25T03:24:04.530Z,99.99
2017-07-25T03:25:05.765Z,99.99
2017-07-25T03:26:07.001Z,99.99
2017-07-25T03:27:08.243Z,99.99
2017-07-25T03:28:09.484Z,99.99
2017-07-25T03:29:10.689Z,99.99
2017-07-25T03:30:12.037Z,99.99
2017-07-25T03:31:13.286Z,99.99
2017-07-25T03:32:14.515Z,99.99
2017-07-25T03:33:15.854Z,99.99
2017-07-25T03:34:17.105Z,99.99
2017-07-25T03:35:18.409Z,99.99
2017-07-25T03:36:19.650Z,99.99
2017-07-25T03:37:20.877Z,99.99
2017-07-25T03:38:22.133Z,99.99
2017-07-25T03:39:23.360Z,99.99
2017-07-25T03:40:24.596Z,99.99
2017-07-25T03:41:25.847Z,99.99
2017-07-25T03:42:27.084Z,99.99
2017-07-25T03:43:28.316Z,99.99
2017-07-25T03:44:29.554Z,99.99
2017-07-25T03:45:30.794Z,99.99
2017-07-25T03:46:32.043Z,99.99
2017-07-25T03:47:33.281Z,99.99
2017-07-25T03:48:34.581Z,99.99
2017-07-25T03:49:35.822Z,99.99
2017-07-25T03:50:37.057Z,99.99
2017-07-25T03:51:38.286Z,99.99
2017-07-25T03:52:39.527Z,99.99
2017-07-25T03:53:40.754Z,99.99
2017-07-25T03:54:42.053Z,99.99
2017-07-25T03:55:43.410Z,99.99
2017-07-25T03:56:44.643Z,99.99
2017-07-25T03:57:45.895Z,99.99
2017-07-25T03:58:47.133Z,99.99
2017-07-25T03:59:48.478Z,99.99
2017-07-25T04:00:49.813Z,99.99
2017-07-25T04:01:51.079Z,99.99
2017-07-25T04:02:52.287Z,99.99
2017-07-25T04:03:53.531Z,99.99
2017-07-25T04:04:54.767Z,99.99
2017-07-25T04:05:56.124Z,99.99
2017-07-25T04:06:57.485Z,99.99
2017-07-25T04:07:58.612Z,99.99
2017-07-25T04:08:59.909Z,99.99
2017-07-25T04:10:01.148Z,99.99
2017-07-25T04:11:02.404Z,99.99
2017-07-25T04:12:03.628Z,99.99
2017-07-25T04:13:04.871Z,99.99
2017-07-25T04:14:06.106Z,99.99
2017-07-25T04:15:07.359Z,99.99
2017-07-25T04:16:08.606Z,99.99
2017-07-25T04:17:09.839Z,99.99
2017-07-25T04:18:11.076Z,99.99
2017-07-25T04:19:12.326Z,99.99
2017-07-25T04:20:13.623Z,99.99
2017-07-25T04:21:14.843Z,99.99
2017-07-25T04:22:16.135Z,99.99
2017-07-25T04:23:17.355Z,99.99
2017-07-25T04:24:18.598Z,99.99
2017-07-25T04:25:19.906Z,99.99
2017-07-25T04:26:21.147Z,99.99
2017-07-25T04:27:22.387Z,99.99
2017-07-25T04:28:23.634Z,99.99
2017-07-25T04:29:24.877Z,99.99
2017-07-25T04:30:26.111Z,99.99
2017-07-25T04:31:27.347Z,99.99
2017-07-25T04:32:28.581Z,99.99
2017-07-25T04:33:29.826Z,99.99
2017-07-25T04:34:31.057Z,99.99
2017-07-25T04:35:32.308Z,99.99
2017-07-25T04:36:33.549Z,99.99
2017-07-25T04:37:34.786Z,99.99
2017-07-25T04:38:36.023Z,99.99
2017-07-25T04:39:37.258Z,99.99
2017-07-25T04:40:38.501Z,99.99
2017-07-25T04:41:39.842Z,99.99
2017-07-25T04:42:41.093Z,99.99
2017-07-25T04:43:42.318Z,99.99
2017-07-25T04:44:43.561Z,99.99
2017-07-25T04:45:44.804Z,99.99
2017-07-25T04:46:46.183Z,99.99
2017-07-25T04:47:47.450Z,99.99
2017-07-25T04:48:48.702Z,99.99
2017-07-25T04:49:49.922Z,99.99
2017-07-25T04:50:51.172Z,99.99
2017-07-25T04:51:52.477Z,99.99
2017-07-25T04:52:53.732Z,99.99
2017-07-25T04:53:54.973Z,99.99
2017-07-25T04:54:56.210Z,99.99
2017-07-25T04:55:57.449Z,99.99
2017-07-25T04:56:58.687Z,99.99
2017-07-25T04:57:59.921Z,99.99
2017-07-25T04:59:01.158Z,99.99
2017-07-25T05:00:02.509Z,99.99
2017-07-25T05:01:03.747Z,99.99
2017-07-25T05:02:04.987Z,99.99
2017-07-25T05:03:06.232Z,99.99
2017-07-25T05:04:07.462Z,99.99
2017-07-25T05:05:08.748Z,99.99
2017-07-25T05:06:10.103Z,99.99
2017-07-25T05:07:11.321Z,99.99
2017-07-25T05:08:12.554Z,99.99
2017-07-25T05:09:13.808Z,99.99
2017-07-25T05:10:15.027Z,99.99
2017-07-25T05:11:16.286Z,99.99
2017-07-25T05:12:17.685Z,99.99
2017-07-25T05:13:18.915Z,99.99
2017-07-25T05:14:20.155Z,99.99
2017-07-25T05:15:21.388Z,99.99
2017-07-25T05:16:22.631Z,99.99
2017-07-25T05:17:24.024Z,99.99
2017-07-25T05:18:25.259Z,99.99
2017-07-25T05:19:26.490Z,99.99
2017-07-25T05:20:27.736Z,99.99
2017-07-25T05:21:28.975Z,99.99
2017-07-25T05:22:30.261Z,99.99
2017-07-25T05:23:31.485Z,99.99
2017-07-25T05:24:32.749Z,99.99
2017-07-25T05:25:33.998Z,99.99
2017-07-25T05:26:35.236Z,99.99
2017-07-25T05:27:36.477Z,99.99
2017-07-25T05:28:37.712Z,99.99
2017-07-25T05:29:38.958Z,99.99
2017-07-25T05:30:40.188Z,99.99
2017-07-25T05:31:41.488Z,99.99
2017-07-25T05:32:42.718Z,99.99
2017-07-25T05:33:43.968Z,99.99
2017-07-25T05:34:45.206Z,99.99
2017-07-25T05:35:46.512Z,99.99
2017-07-25T05:36:47.755Z,99.99
2017-07-25T05:37:49.091Z,99.99
2017-07-25T05:38:50.382Z,99.99
2017-07-25T05:39:51.621Z,99.99
2017-07-25T05:40:52.847Z,99.99
2017-07-25T05:41:54.088Z,99.99
2017-07-25T05:42:55.330Z,99.99
2017-07-25T05:43:56.586Z,99.99
2017-07-25T05:44:57.840Z,99.99
2017-07-25T05:45:59.127Z,99.99
2017-07-25T05:47:00.387Z,99.99
2017-07-25T05:48:01.617Z,99.99
2017-07-25T05:49:02.855Z,99.99
2017-07-25T05:50:04.093Z,99.99
2017-07-25T05:51:05.399Z,99.99
2017-07-25T05:52:06.612Z,99.99
2017-07-25T05:53:07.820Z,99.99
2017-07-25T05:54:09.060Z,99.99
2017-07-25T05:55:10.322Z,99.99
2017-07-25T05:56:11.559Z,99.99
2017-07-25T05:57:12.887Z,99.99
2017-07-25T05:58:14.177Z,99.99
2017-07-25T05:59:15.546Z,99.99
2017-07-25T06:00:16.787Z,99.99
2017-07-25T06:01:18.024Z,99.99
2017-07-25T06:02:19.262Z,99.99
2017-07-25T06:03:20.502Z,99.99
2017-07-25T06:04:21.806Z,99.99
2017-07-25T06:05:23.053Z,99.99
2017-07-25T06:06:24.291Z,99.99
2017-07-25T06:07:25.526Z,99.99
2017-07-25T06:08:26.767Z,99.99
2017-07-25T06:09:28.017Z,99.99
2017-07-25T06:10:29.256Z,99.99
2017-07-25T06:11:30.545Z,99.99
2017-07-25T06:12:31.790Z,99.99
2017-07-25T06:13:33.023Z,99.99
2017-07-25T06:14:34.349Z,99.99
2017-07-25T06:15:35.835Z,99.99
2017-07-25T06:16:37.072Z,99.99
2017-07-25T06:17:38.311Z,99.99
2017-07-25T06:18:39.550Z,99.99
2017-07-25T06:19:40.812Z,99.99
2017-07-25T06:20:42.112Z,99.99
2017-07-25T06:21:43.361Z,99.99
2017-07-25T06:22:44.605Z,99.99
2017-07-25T06:23:45.843Z,99.99
2017-07-25T06:24:47.072Z,99.99
2017-07-25T06:25:48.340Z,99.99
2017-07-25T06:26:49.562Z,99.99
2017-07-25T06:27:50.811Z,99.99
2017-07-25T06:28:52.162Z,99.99
2017-07-25T06:29:53.399Z,99.99
2017-07-25T06:30:54.659Z,99.99
2017-07-25T06:31:55.889Z,99.99
2017-07-25T06:32:57.326Z,99.99
2017-07-25T06:33:58.584Z,99.99
2017-07-25T06:34:59.936Z,99.99
2017-07-25T06:36:01.198Z,99.99
2017-07-25T06:37:02.436Z,99.99
2017-07-25T06:38:03.672Z,99.99
2017-07-25T06:39:04.919Z,99.99
2017-07-25T06:40:06.445Z,99.99
2017-07-25T06:41:07.799Z,99.99
2017-07-25T06:42:09.037Z,99.99
2017-07-25T06:43:10.276Z,99.99
2017-07-25T06:44:11.514Z,99.99
2017-07-25T06:45:12.753Z,99.99
2017-07-25T06:46:14.086Z,99.99
2017-07-25T06:47:15.346Z,99.99
2017-07-25T06:48:16.601Z,99.99
2017-07-25T06:49:17.821Z,99.99
2017-07-25T06:50:19.086Z,99.99
2017-07-25T06:51:20.293Z,99.99
2017-07-25T06:52:21.752Z,99.99
2017-07-25T06:53:23.151Z,99.99
2017-07-25T06:54:24.388Z,99.99
2017-07-25T06:55:25.626Z,99.99
2017-07-25T06:56:26.866Z,99.99
2017-07-25T06:57:28.117Z,99.99
2017-07-25T06:58:29.438Z,99.99
2017-07-25T06:59:30.677Z,99.99
2017-07-25T07:00:31.913Z,99.99
2017-07-25T07:01:33.151Z,99.99
2017-07-25T07:02:34.392Z,99.99
2017-07-25T07:03:35.635Z,99.99
2017-07-25T07:04:36.866Z,99.99
2017-07-25T07:05:38.107Z,99.99
2017-07-25T07:06:39.458Z,99.99
2017-07-25T07:07:40.700Z,99.99
2017-07-25T07:08:41.960Z,99.99
2017-07-25T07:09:43.173Z,99.99
2017-07-25T07:10:44.426Z,99.99
2017-07-25T07:11:45.678Z,99.99
2017-07-25T07:12:46.912Z,99.99
2017-07-25T07:13:48.170Z,99.99
2017-07-25T07:14:49.409Z,99.99
2017-07-25T07:15:50.670Z,99.99
2017-07-25T07:16:51.930Z,99.99
2017-07-25T07:17:53.161Z,99.99
2017-07-25T07:18:54.395Z,99.99
2017-07-25T07:19:55.700Z,99.99
2017-07-25T07:20:56.937Z,99.99
2017-07-25T07:21:58.192Z,99.99
2017-07-25T07:22:59.427Z,99.99
2017-07-25T07:24:00.662Z,99.99
2017-07-25T07:25:02.002Z,99.99
2017-07-25T07:26:03.239Z,99.99
2017-07-25T07:27:04.479Z,99.99
2017-07-25T07:28:05.721Z,99.99
2017-07-25T07:29:06.972Z,99.99
2017-07-25T07:30:08.210Z,99.99
2017-07-25T07:31:09.550Z,99.99
2017-07-25T07:32:10.692Z,99.99
2017-07-25T07:33:11.927Z,99.99
2017-07-25T07:34:13.188Z,99.99
2017-07-25T07:35:14.463Z,99.99
2017-07-25T07:36:16.107Z,99.99
2017-07-25T07:37:17.253Z,99.99
2017-07-25T07:38:18.489Z,99.99
2017-07-25T07:39:19.728Z,99.99
2017-07-25T07:40:20.979Z,99.99
2017-07-25T07:41:22.271Z,99.99
2017-07-25T07:42:23.510Z,99.99
2017-07-25T07:43:24.747Z,99.99
2017-07-25T07:44:26.209Z,99.99
2017-07-25T07:45:27.455Z,99.99
2017-07-25T07:46:28.690Z,99.99
2017-07-25T07:47:29.970Z,99.99
2017-07-25T07:48:31.199Z,99.99
2017-07-25T07:49:32.539Z,99.99
2017-07-25T07:50:33.790Z,99.99
2017-07-25T07:51:35.030Z,99.99
2017-07-25T07:52:36.365Z,99.99
2017-07-25T07:53:37.733Z,99.99
2017-07-25T07:54:39.301Z,99.99
2017-07-25T07:55:40.426Z,99.96
2017-07-25T07:56:41.667Z,99.87
2017-07-25T07:57:42.904Z,99.99
2017-07-25T07:58:44.172Z,99.77
2017-07-25T07:59:45.420Z,99.99
2017-07-25T08:00:46.681Z,99.96
2017-07-25T08:01:47.943Z,99.99
2017-07-25T08:02:49.189Z,99.87
2017-07-25T08:03:50.500Z,99.29
2017-07-25T08:04:51.736Z,99.39
2017-07-25T08:05:52.978Z,99.99
2017-07-25T08:06:54.227Z,99.99
2017-07-25T08:07:55.466Z,99.44
2017-07-25T08:08:56.703Z,99.73
2017-07-25T08:09:57.943Z,98.86
2017-07-25T08:10:59.197Z,98.24
2017-07-25T08:12:00.532Z,97.86
2017-07-25T08:13:01.868Z,97.47
2017-07-25T08:14:03.128Z,96.47
2017-07-25T08:15:04.349Z,96.37
2017-07-25T08:16:05.587Z,95.21
2017-07-25T08:17:06.839Z,95.12
2017-07-25T08:18:08.138Z,95.12
2017-07-25T08:19:09.374Z,94.26
2017-07-25T08:20:10.703Z,94.54
2017-07-25T08:21:11.947Z,93.58
2017-07-25T08:22:13.191Z,93.19
2017-07-25T08:23:14.492Z,93.1
2017-07-25T08:24:15.742Z,93.39
2017-07-25T08:25:17.019Z,93.96
2017-07-25T08:26:18.300Z,93.87
2017-07-25T08:27:19.608Z,94.93
2017-07-25T08:28:20.849Z,94.93
2017-07-25T08:29:22.097Z,94.4
2017-07-25T08:30:23.345Z,93.73
2017-07-25T08:31:24.606Z,92.19
2017-07-25T08:32:25.853Z,92.47
2017-07-25T08:33:27.178Z,91.9
2017-07-25T08:34:28.411Z,91.99
2017-07-25T08:35:29.655Z,92.19
2017-07-25T08:36:30.891Z,92.29
2017-07-25T08:37:32.130Z,92.47
2017-07-25T08:38:33.407Z,92.57
2017-07-25T08:39:34.626Z,92.57
2017-07-25T08:40:35.869Z,92.47
2017-07-25T08:41:37.107Z,91.8
2017-07-25T08:42:38.467Z,92.47
2017-07-25T08:43:39.745Z,92.57
2017-07-25T08:44:40.960Z,92.86
2017-07-25T08:45:42.355Z,91.32
2017-07-25T08:46:43.603Z,91.8
2017-07-25T08:47:44.853Z,91.42
2017-07-25T08:48:46.191Z,91.75
2017-07-25T08:49:47.443Z,91.94
2017-07-25T08:50:48.681Z,92.04
2017-07-25T08:51:49.967Z,91.71
2017-07-25T08:52:51.211Z,92.09
2017-07-25T08:53:52.457Z,92.67
2017-07-25T08:54:53.703Z,93.05
2017-07-25T08:55:54.963Z,93.44
2017-07-25T08:56:56.247Z,93.15
2017-07-25T08:57:57.485Z,92.19
2017-07-25T08:58:58.722Z,92.38
2017-07-25T08:59:59.973Z,92.29
2017-07-25T09:01:01.210Z,92.38
2017-07-25T09:02:02.569Z,92.71
2017-07-25T09:03:03.856Z,92.57
2017-07-25T09:04:05.158Z,92.52
2017-07-25T09:05:06.356Z,92.47
2017-07-25T09:06:07.597Z,92.96
2017-07-25T09:07:08.849Z,91.94
2017-07-25T09:08:10.173Z,91.75
2017-07-25T09:09:11.426Z,92.52
2017-07-25T09:10:12.662Z,92.43
2017-07-25T09:11:13.900Z,91.85
2017-07-25T09:12:15.145Z,90.5
2017-07-25T09:13:16.579Z,90.41
2017-07-25T09:14:17.932Z,91.27
2017-07-25T09:15:19.097Z,90.64
2017-07-25T09:16:20.407Z,89.78
2017-07-25T09:17:21.765Z,89.68
2017-07-25T09:18:23.002Z,90.02
2017-07-25T09:19:24.246Z,90.59
2017-07-25T09:20:25.494Z,90.89
2017-07-25T09:21:26.743Z,91.66
2017-07-25T09:22:28.059Z,91.42
2017-07-25T09:23:29.304Z,92.38
2017-07-25T09:24:30.562Z,94.11
2017-07-25T09:25:31.799Z,94.49
2017-07-25T09:26:33.039Z,95.03
2017-07-25T09:27:34.297Z,95.6
2017-07-25T09:28:35.626Z,95.79
2017-07-25T09:29:36.858Z,96.47
2017-07-25T09:30:38.110Z,95.98
2017-07-25T09:31:39.348Z,96.85
2017-07-25T09:32:40.589Z,96.47
2017-07-25T09:33:41.904Z,96.56
2017-07-25T09:34:43.153Z,96.56
2017-07-25T09:35:44.399Z,97.04
2017-07-25T09:36:45.654Z,97.52
2017-07-25T09:37:46.879Z,96.94
2017-07-25T09:38:48.176Z,97.52
2017-07-25T09:39:49.417Z,98.39
2017-07-25T09:40:50.714Z,97.71
2017-07-25T09:41:52.005Z,97.91
2017-07-25T09:42:53.258Z,98.39
2017-07-25T09:43:54.522Z,98.39
2017-07-25T09:44:55.742Z,98.19
2017-07-25T09:45:57.101Z,98.39
2017-07-25T09:46:58.356Z,97.86
2017-07-25T09:47:59.585Z,96.51
2017-07-25T09:49:00.830Z,95.36
2017-07-25T09:50:02.069Z,96.27
2017-07-25T09:51:03.333Z,96.51
2017-07-25T09:52:04.588Z,97.09
2017-07-25T09:53:05.909Z,96.8
2017-07-25T09:54:07.243Z,96.7
2017-07-25T09:55:08.405Z,96.42
2017-07-25T09:56:09.669Z,96.22
2017-07-25T09:57:11.154Z,96.03
2017-07-25T09:58:12.463Z,94.98
2017-07-25T09:59:13.708Z,95.17
2017-07-25T10:00:14.974Z,95.36
2017-07-25T10:01:16.188Z,95.26
2017-07-25T10:02:17.428Z,94.4
2017-07-25T10:03:18.726Z,95.36
2017-07-25T10:04:20.038Z,95.17
2017-07-25T10:05:21.286Z,95.26
2017-07-25T10:06:22.737Z,94.98
2017-07-25T10:07:23.954Z,95.07
2017-07-25T10:08:25.186Z,95.98
2017-07-25T10:09:26.443Z,95.7
2017-07-25T10:10:27.768Z,96.27
2017-07-25T10:11:28.989Z,96.27
2017-07-25T10:12:30.252Z,96.37
2017-07-25T10:13:31.489Z,96.85
2017-07-25T10:14:32.725Z,97.42
2017-07-25T10:15:34.087Z,97.14
2017-07-25T10:16:35.325Z,97.81
2017-07-25T10:17:36.913Z,98.14
2017-07-25T10:18:38.114Z,98.91
2017-07-25T10:19:39.363Z,99.68
2017-07-25T10:20:40.664Z,99.99
2017-07-25T10:21:41.993Z,99.87
2017-07-25T10:22:43.218Z,99.99
2017-07-25T10:23:44.458Z,99.99
2017-07-25T10:24:45.718Z,99.87
2017-07-25T10:25:46.971Z,99.99
2017-07-25T10:26:48.216Z,99.99
2017-07-25T10:27:49.455Z,99.99
2017-07-25T10:28:50.700Z,99.99
2017-07-25T10:29:51.971Z,99.78
2017-07-25T10:30:53.268Z,99.83
2017-07-25T10:31:54.499Z,99.63
2017-07-25T10:32:55.743Z,99.06
2017-07-25T10:33:56.983Z,99.15
2017-07-25T10:34:58.236Z,98.96
2017-07-25T10:35:59.496Z,98.39
2017-07-25T10:37:00.733Z,98
2017-07-25T10:38:01.969Z,98.48
2017-07-25T10:39:03.237Z,96.99
2017-07-25T10:40:04.822Z,97.67
2017-07-25T10:41:06.058Z,96.99
2017-07-25T10:42:07.328Z,96.9
2017-07-25T10:43:08.554Z,96.8
2017-07-25T10:44:09.796Z,95.17
2017-07-25T10:45:11.034Z,94.88
2017-07-25T10:46:12.276Z,94.15
2017-07-25T10:47:13.835Z,93.63
2017-07-25T10:48:14.990Z,93.96
2017-07-25T10:49:16.214Z,94.83
2017-07-25T10:50:17.467Z,95.36
2017-07-25T10:51:18.700Z,94.92
2017-07-25T10:52:19.959Z,93.34
2017-07-25T10:53:21.205Z,93.58
2017-07-25T10:54:23.077Z,94.4
2017-07-25T10:55:24.323Z,95.45
2017-07-25T10:56:25.558Z,95.17
2017-07-25T10:57:26.813Z,95.45
2017-07-25T10:58:28.154Z,95.65
2017-07-25T10:59:29.398Z,96.17
2017-07-25T11:00:30.631Z,97.24
2017-07-25T11:01:31.884Z,97.71
2017-07-25T11:02:33.108Z,98.86
2017-07-25T11:03:34.550Z,98.96
2017-07-25T11:04:35.821Z,98.58
2017-07-25T11:05:37.061Z,99.73
2017-07-25T11:06:38.300Z,99.73
2017-07-25T11:07:39.562Z,99.83
2017-07-25T11:08:40.808Z,99.73
2017-07-25T11:09:42.104Z,99.99
2017-07-25T11:10:43.347Z,99.06
2017-07-25T11:11:44.624Z,99.73
2017-07-25T11:12:45.838Z,99.99
2017-07-25T11:13:47.079Z,99.3
2017-07-25T11:14:48.446Z,98.72
2017-07-25T11:15:49.690Z,96.99
2017-07-25T11:16:50.972Z,96.47
2017-07-25T11:17:52.456Z,96.8
2017-07-25T11:18:53.683Z,96.94
2017-07-25T11:19:54.902Z,96.66
2017-07-25T11:20:56.145Z,96.47
2017-07-25T11:21:57.383Z,95.89
2017-07-25T11:22:58.649Z,95.17
2017-07-25T11:23:59.889Z,94.49
2017-07-25T11:25:01.128Z,92.57
2017-07-25T11:26:02.448Z,92.66
2017-07-25T11:27:03.689Z,92.66
2017-07-25T11:28:04.975Z,91.84
2017-07-25T11:29:06.288Z,92.42
2017-07-25T11:30:07.523Z,90.5
2017-07-25T11:31:08.757Z,90.97
2017-07-25T11:32:09.995Z,90.64
2017-07-25T11:33:11.293Z,89.19
2017-07-25T11:34:12.486Z,88.46
2017-07-25T11:35:13.745Z,87.21
2017-07-25T11:36:14.979Z,86.77
2017-07-25T11:37:16.349Z,85.81
2017-07-25T11:38:17.578Z,85.42
2017-07-25T11:39:18.827Z,84.75
2017-07-25T11:40:20.114Z,84.36
2017-07-25T11:41:21.341Z,84.36
2017-07-25T11:42:22.656Z,84.36
2017-07-25T11:43:23.903Z,83.69
2017-07-25T11:44:25.161Z,83.55
2017-07-25T11:45:26.427Z,84.7
2017-07-25T11:46:27.665Z,86.44
2017-07-25T11:47:28.899Z,86.25
2017-07-25T11:48:30.180Z,86.44
2017-07-25T11:49:31.481Z,86.63
2017-07-25T11:50:32.734Z,87.21
2017-07-25T11:51:33.971Z,87.06
2017-07-25T11:52:35.218Z,85.71
2017-07-25T11:53:36.484Z,85.13
2017-07-25T11:54:37.814Z,84.41
2017-07-25T11:55:39.056Z,82.57
2017-07-25T11:56:40.295Z,83.48
2017-07-25T11:57:41.547Z,82.23
2017-07-25T11:58:42.789Z,81.65
2017-07-25T11:59:44.100Z,81.93
2017-07-25T12:00:45.333Z,82.23
2017-07-25T12:01:46.587Z,79.81
2017-07-25T12:02:47.816Z,80.1
2017-07-25T12:03:49.059Z,80
2017-07-25T12:04:50.303Z,80.1
2017-07-25T12:05:51.566Z,80.05
2017-07-25T12:06:52.807Z,79.24
2017-07-25T12:07:54.056Z,79.91
2017-07-25T12:08:55.302Z,81.12
2017-07-25T12:09:56.543Z,80.83
2017-07-25T12:10:57.811Z,82.62
2017-07-25T12:11:59.044Z,83.69
2017-07-25T12:13:00.351Z,84.12
2017-07-25T12:14:01.757Z,84.7
2017-07-25T12:15:03.002Z,85.38
2017-07-25T12:16:04.239Z,85.57
2017-07-25T12:17:05.475Z,87.02
2017-07-25T12:18:06.974Z,86.88
2017-07-25T12:19:08.315Z,87.6
2017-07-25T12:20:09.576Z,87.46
2017-07-25T12:21:10.814Z,87.21
2017-07-25T12:22:12.053Z,86.82
2017-07-25T12:23:13.294Z,85.28
2017-07-25T12:24:14.552Z,84.9
2017-07-25T12:25:15.887Z,84.7
2017-07-25T12:26:17.165Z,84.7
2017-07-25T12:27:18.387Z,84.75
2017-07-25T12:28:19.628Z,83.98
2017-07-25T12:29:20.887Z,84.27
2017-07-25T12:30:22.144Z,84.36
2017-07-25T12:31:23.385Z,83.4
2017-07-25T12:32:24.622Z,83.59
2017-07-25T12:33:25.873Z,82.57
2017-07-25T12:34:27.128Z,82.38
2017-07-25T12:35:28.381Z,82.09
2017-07-25T12:36:29.619Z,82.09
2017-07-25T12:37:30.863Z,82.18
2017-07-25T12:38:32.143Z,83.83
2017-07-25T12:39:33.388Z,82.76
2017-07-25T12:40:34.606Z,82.28
2017-07-25T12:41:35.844Z,81.9
2017-07-25T12:42:37.083Z,82.86
2017-07-25T12:43:38.342Z,81.9
2017-07-25T12:44:39.710Z,82.18
2017-07-25T12:45:40.873Z,81.93
2017-07-25T12:46:42.112Z,82.03
2017-07-25T12:47:43.374Z,81.07
2017-07-25T12:48:44.613Z,81.51
2017-07-25T12:49:45.852Z,81.99
2017-07-25T12:50:47.100Z,81.45
2017-07-25T12:51:48.348Z,81.16
2017-07-25T12:52:49.641Z,81.65
2017-07-25T12:53:50.886Z,81.65
2017-07-25T12:54:52.129Z,81.93
2017-07-25T12:55:53.364Z,81.02
2017-07-25T12:56:54.623Z,80.93
2017-07-25T12:57:55.956Z,81.8
2017-07-25T12:58:57.195Z,82.18
2017-07-25T12:59:58.437Z,82.18
2017-07-25T13:00:59.663Z,82.57
2017-07-25T13:02:00.926Z,82.18
2017-07-25T13:03:02.205Z,82.14
2017-07-25T13:04:03.640Z,82.34
2017-07-25T13:05:04.894Z,82.86
2017-07-25T13:06:06.128Z,83.25
2017-07-25T13:07:07.377Z,83.05
2017-07-25T13:08:08.638Z,83.34
2017-07-25T13:09:10.021Z,81.93
2017-07-25T13:10:11.232Z,81.74